sensor_id;sensor_type;location;lat;lon;timestamp;P1;durP1;ratioP1;P2;durP2;ratioP2
16385;SDS011;8302;51.154;4.456;2022-12-24T00:02:21;2.95;;;1.17;;
16385;SDS011;8302;51.154;4.456;2022-12-24T00:04:49;0.77;;;0.52;;
16385;SDS011;8302;51.154;4.456;2022-12-24T00:07:27;2.03;;;1.10;;
16385;SDS011;8302;51.154;4.456;2022-12-24T00:09:55;3.17;;;1.35;;
16385;SDS011;8302;51.154;4.456;2022-12-24T00:12:23;5.13;;;1.27;;
16385;SDS011;8302;51.154;4.456;2022-12-24T00:14:50;3.33;;;1.30;;
16385;SDS011;8302;51.154;4.456;2022-12-24T00:17:18;4.10;;;1.33;;
16385;SDS011;8302;51.154;4.456;2022-12-24T00:19:46;7.30;;;1.15;;
16385;SDS011;8302;51.154;4.456;2022-12-24T00:22:14;3.80;;;1.48;;
16385;SDS011;8302;51.154;4.456;2022-12-24T00:24:43;1.55;;;0.68;;
16385;SDS011;8302;51.154;4.456;2022-12-24T00:27:11;3.70;;;0.57;;
16385;SDS011;8302;51.154;4.456;2022-12-24T00:29:39;3.03;;;1.42;;
16385;SDS011;8302;51.154;4.456;2022-12-24T00:32:07;3.67;;;1.13;;
16385;SDS011;8302;51.154;4.456;2022-12-24T00:34:35;1.52;;;0.47;;
16385;SDS011;8302;51.154;4.456;2022-12-24T00:37:04;2.75;;;0.90;;
16385;SDS011;8302;51.154;4.456;2022-12-24T00:39:32;0.80;;;0.80;;
16385;SDS011;8302;51.154;4.456;2022-12-24T00:42:01;4.20;;;1.02;;
16385;SDS011;8302;51.154;4.456;2022-12-24T00:44:29;0.88;;;0.65;;
16385;SDS011;8302;51.154;4.456;2022-12-24T00:46:57;1.05;;;0.95;;
16385;SDS011;8302;51.154;4.456;2022-12-24T00:49:24;1.70;;;0.95;;
16385;SDS011;8302;51.154;4.456;2022-12-24T00:51:52;1.25;;;0.82;;
16385;SDS011;8302;51.154;4.456;2022-12-24T00:54:20;1.35;;;0.70;;
16385;SDS011;8302;51.154;4.456;2022-12-24T00:56:48;0.85;;;0.70;;
16385;SDS011;8302;51.154;4.456;2022-12-24T00:59:17;4.30;;;0.65;;
16385;SDS011;8302;51.154;4.456;2022-12-24T01:01:45;2.67;;;0.70;;
16385;SDS011;8302;51.154;4.456;2022-12-24T01:04:13;0.43;;;0.43;;
16385;SDS011;8302;51.154;4.456;2022-12-24T01:06:58;3.28;;;1.02;;
16385;SDS011;8302;51.154;4.456;2022-12-24T01:09:26;4.15;;;1.50;;
16385;SDS011;8302;51.154;4.456;2022-12-24T01:11:54;4.22;;;0.73;;
16385;SDS011;8302;51.154;4.456;2022-12-24T01:14:23;3.28;;;1.00;;
16385;SDS011;8302;51.154;4.456;2022-12-24T01:16:51;2.15;;;0.93;;
16385;SDS011;8302;51.154;4.456;2022-12-24T01:19:19;2.55;;;1.23;;
16385;SDS011;8302;51.154;4.456;2022-12-24T01:21:47;2.08;;;1.17;;
16385;SDS011;8302;51.154;4.456;2022-12-24T01:24:15;0.93;;;0.47;;
16385;SDS011;8302;51.154;4.456;2022-12-24T01:26:43;3.53;;;0.95;;
16385;SDS011;8302;51.154;4.456;2022-12-24T01:29:11;3.60;;;1.20;;
16385;SDS011;8302;51.154;4.456;2022-12-24T01:31:40;0.85;;;0.80;;
16385;SDS011;8302;51.154;4.456;2022-12-24T01:34:08;0.70;;;0.63;;
16385;SDS011;8302;51.154;4.456;2022-12-24T01:36:36;2.15;;;1.38;;
16385;SDS011;8302;51.154;4.456;2022-12-24T01:39:04;1.73;;;0.95;;
16385;SDS011;8302;51.154;4.456;2022-12-24T01:41:31;7.97;;;1.40;;
16385;SDS011;8302;51.154;4.456;2022-12-24T01:44:21;3.60;;;1.10;;
16385;SDS011;8302;51.154;4.456;2022-12-24T01:47:03;4.70;;;1.00;;
16385;SDS011;8302;51.154;4.456;2022-12-24T01:49:33;6.03;;;1.48;;
16385;SDS011;8302;51.154;4.456;2022-12-24T01:52:02;1.42;;;1.02;;
16385;SDS011;8302;51.154;4.456;2022-12-24T01:54:31;4.43;;;0.82;;
16385;SDS011;8302;51.154;4.456;2022-12-24T01:57:02;3.67;;;1.38;;
16385;SDS011;8302;51.154;4.456;2022-12-24T01:59:31;2.28;;;1.15;;
16385;SDS011;8302;51.154;4.456;2022-12-24T02:01:59;1.00;;;0.77;;
16385;SDS011;8302;51.154;4.456;2022-12-24T02:04:31;2.70;;;0.95;;
16385;SDS011;8302;51.154;4.456;2022-12-24T02:07:00;3.70;;;1.45;;
16385;SDS011;8302;51.154;4.456;2022-12-24T02:09:27;3.53;;;1.50;;
16385;SDS011;8302;51.154;4.456;2022-12-24T02:11:55;5.20;;;1.50;;
16385;SDS011;8302;51.154;4.456;2022-12-24T02:14:24;1.27;;;0.80;;
16385;SDS011;8302;51.154;4.456;2022-12-24T02:16:54;2.05;;;0.80;;
16385;SDS011;8302;51.154;4.456;2022-12-24T02:19:40;6.63;;;1.02;;
16385;SDS011;8302;51.154;4.456;2022-12-24T02:22:11;4.25;;;1.17;;
16385;SDS011;8302;51.154;4.456;2022-12-24T02:24:51;1.25;;;0.55;;
16385;SDS011;8302;51.154;4.456;2022-12-24T02:27:34;0.65;;;0.63;;
16385;SDS011;8302;51.154;4.456;2022-12-24T02:30:06;0.63;;;0.60;;
16385;SDS011;8302;51.154;4.456;2022-12-24T02:32:38;2.13;;;1.10;;
16385;SDS011;8302;51.154;4.456;2022-12-24T02:35:08;4.38;;;1.08;;
16385;SDS011;8302;51.154;4.456;2022-12-24T02:37:37;1.17;;;0.75;;
16385;SDS011;8302;51.154;4.456;2022-12-24T02:40:07;2.40;;;0.35;;
16385;SDS011;8302;51.154;4.456;2022-12-24T02:42:50;1.55;;;0.63;;
16385;SDS011;8302;51.154;4.456;2022-12-24T02:45:22;1.55;;;1.10;;
16385;SDS011;8302;51.154;4.456;2022-12-24T02:47:52;3.45;;;0.70;;
16385;SDS011;8302;51.154;4.456;2022-12-24T02:50:22;1.33;;;0.80;;
16385;SDS011;8302;51.154;4.456;2022-12-24T02:52:50;2.45;;;0.85;;
16385;SDS011;8302;51.154;4.456;2022-12-24T02:55:19;2.38;;;0.82;;
16385;SDS011;8302;51.154;4.456;2022-12-24T02:58:01;3.42;;;0.77;;
16385;SDS011;8302;51.154;4.456;2022-12-24T03:00:37;2.40;;;0.93;;
16385;SDS011;8302;51.154;4.456;2022-12-24T03:03:15;2.53;;;0.88;;
16385;SDS011;8302;51.154;4.456;2022-12-24T03:05:47;2.40;;;1.10;;
16385;SDS011;8302;51.154;4.456;2022-12-24T03:08:20;1.40;;;0.85;;
16385;SDS011;8302;51.154;4.456;2022-12-24T03:10:52;1.17;;;1.08;;
16385;SDS011;8302;51.154;4.456;2022-12-24T03:13:21;3.15;;;0.93;;
16385;SDS011;8302;51.154;4.456;2022-12-24T03:15:51;3.30;;;1.33;;
16385;SDS011;8302;51.154;4.456;2022-12-24T03:18:19;3.05;;;1.10;;
16385;SDS011;8302;51.154;4.456;2022-12-24T03:20:49;0.63;;;0.60;;
16385;SDS011;8302;51.154;4.456;2022-12-24T03:23:19;1.10;;;0.95;;
16385;SDS011;8302;51.154;4.456;2022-12-24T03:25:47;1.83;;;0.57;;
16385;SDS011;8302;51.154;4.456;2022-12-24T03:28:15;2.80;;;1.15;;
16385;SDS011;8302;51.154;4.456;2022-12-24T03:30:45;4.60;;;1.08;;
16385;SDS011;8302;51.154;4.456;2022-12-24T03:33:15;3.75;;;1.38;;
16385;SDS011;8302;51.154;4.456;2022-12-24T03:35:44;1.35;;;0.63;;
16385;SDS011;8302;51.154;4.456;2022-12-24T03:38:11;3.42;;;1.08;;
16385;SDS011;8302;51.154;4.456;2022-12-24T03:40:39;1.05;;;0.80;;
16385;SDS011;8302;51.154;4.456;2022-12-24T03:43:07;2.40;;;0.98;;
16385;SDS011;8302;51.154;4.456;2022-12-24T03:45:35;2.47;;;0.80;;
16385;SDS011;8302;51.154;4.456;2022-12-24T03:48:03;2.20;;;0.93;;
16385;SDS011;8302;51.154;4.456;2022-12-24T03:50:33;3.72;;;1.08;;
16385;SDS011;8302;51.154;4.456;2022-12-24T03:53:00;4.82;;;1.48;;
16385;SDS011;8302;51.154;4.456;2022-12-24T03:55:28;2.42;;;1.23;;
16385;SDS011;8302;51.154;4.456;2022-12-24T03:57:56;2.75;;;1.20;;
16385;SDS011;8302;51.154;4.456;2022-12-24T04:00:24;2.22;;;0.98;;
16385;SDS011;8302;51.154;4.456;2022-12-24T04:02:52;2.25;;;0.70;;
16385;SDS011;8302;51.154;4.456;2022-12-24T04:05:20;0.88;;;0.52;;
16385;SDS011;8302;51.154;4.456;2022-12-24T04:07:50;6.28;;;1.02;;
16385;SDS011;8302;51.154;4.456;2022-12-24T04:10:17;3.63;;;1.23;;
16385;SDS011;8302;51.154;4.456;2022-12-24T04:12:45;0.75;;;0.45;;
16385;SDS011;8302;51.154;4.456;2022-12-24T04:15:13;0.82;;;0.45;;
16385;SDS011;8302;51.154;4.456;2022-12-24T04:17:41;3.80;;;1.58;;
16385;SDS011;8302;51.154;4.456;2022-12-24T04:20:09;0.93;;;0.70;;
16385;SDS011;8302;51.154;4.456;2022-12-24T04:22:37;4.05;;;1.08;;
16385;SDS011;8302;51.154;4.456;2022-12-24T04:25:07;2.10;;;0.90;;
16385;SDS011;8302;51.154;4.456;2022-12-24T04:27:35;1.17;;;0.73;;
16385;SDS011;8302;51.154;4.456;2022-12-24T04:30:03;2.40;;;0.93;;
16385;SDS011;8302;51.154;4.456;2022-12-24T04:32:32;1.60;;;1.15;;
16385;SDS011;8302;51.154;4.456;2022-12-24T04:35:00;1.45;;;0.73;;
16385;SDS011;8302;51.154;4.456;2022-12-24T04:37:27;1.15;;;0.63;;
16385;SDS011;8302;51.154;4.456;2022-12-24T04:39:55;5.22;;;0.60;;
16385;SDS011;8302;51.154;4.456;2022-12-24T04:42:24;1.77;;;0.70;;
16385;SDS011;8302;51.154;4.456;2022-12-24T04:44:52;1.55;;;0.85;;
16385;SDS011;8302;51.154;4.456;2022-12-24T04:47:20;1.85;;;0.88;;
16385;SDS011;8302;51.154;4.456;2022-12-24T04:49:48;1.23;;;0.75;;
16385;SDS011;8302;51.154;4.456;2022-12-24T04:52:16;0.82;;;0.80;;
16385;SDS011;8302;51.154;4.456;2022-12-24T04:54:44;2.10;;;1.02;;
16385;SDS011;8302;51.154;4.456;2022-12-24T04:57:12;1.90;;;0.95;;
16385;SDS011;8302;51.154;4.456;2022-12-24T04:59:41;1.05;;;0.70;;
16385;SDS011;8302;51.154;4.456;2022-12-24T05:02:09;2.13;;;0.90;;
16385;SDS011;8302;51.154;4.456;2022-12-24T05:04:37;2.58;;;0.95;;
16385;SDS011;8302;51.154;4.456;2022-12-24T05:07:05;3.17;;;0.70;;
16385;SDS011;8302;51.154;4.456;2022-12-24T05:09:33;2.90;;;0.80;;
16385;SDS011;8302;51.154;4.456;2022-12-24T05:12:00;3.92;;;0.75;;
16385;SDS011;8302;51.154;4.456;2022-12-24T05:14:28;0.75;;;0.52;;
16385;SDS011;8302;51.154;4.456;2022-12-24T05:16:57;2.40;;;0.77;;
16385;SDS011;8302;51.154;4.456;2022-12-24T05:19:25;2.92;;;1.10;;
16385;SDS011;8302;51.154;4.456;2022-12-24T05:21:53;4.47;;;1.33;;
16385;SDS011;8302;51.154;4.456;2022-12-24T05:24:35;0.93;;;0.70;;
16385;SDS011;8302;51.154;4.456;2022-12-24T05:27:20;3.22;;;0.90;;
16385;SDS011;8302;51.154;4.456;2022-12-24T05:29:48;1.15;;;0.77;;
16385;SDS011;8302;51.154;4.456;2022-12-24T05:32:17;1.35;;;0.93;;
16385;SDS011;8302;51.154;4.456;2022-12-24T05:34:45;3.88;;;0.98;;
16385;SDS011;8302;51.154;4.456;2022-12-24T05:37:13;3.53;;;1.33;;
16385;SDS011;8302;51.154;4.456;2022-12-24T05:39:41;2.55;;;0.93;;
16385;SDS011;8302;51.154;4.456;2022-12-24T05:42:09;2.75;;;1.50;;
16385;SDS011;8302;51.154;4.456;2022-12-24T05:44:37;1.85;;;0.88;;
16385;SDS011;8302;51.154;4.456;2022-12-24T05:47:05;3.13;;;1.20;;
16385;SDS011;8302;51.154;4.456;2022-12-24T05:49:34;2.65;;;1.02;;
16385;SDS011;8302;51.154;4.456;2022-12-24T05:52:03;0.65;;;0.45;;
16385;SDS011;8302;51.154;4.456;2022-12-24T05:54:31;0.93;;;0.70;;
16385;SDS011;8302;51.154;4.456;2022-12-24T05:56:59;5.20;;;0.63;;
16385;SDS011;8302;51.154;4.456;2022-12-24T05:59:27;3.28;;;0.75;;
16385;SDS011;8302;51.154;4.456;2022-12-24T06:01:55;3.97;;;1.30;;
16385;SDS011;8302;51.154;4.456;2022-12-24T06:04:23;1.58;;;0.52;;
16385;SDS011;8302;51.154;4.456;2022-12-24T06:06:56;4.95;;;0.80;;
16385;SDS011;8302;51.154;4.456;2022-12-24T06:09:24;1.60;;;0.90;;
16385;SDS011;8302;51.154;4.456;2022-12-24T06:11:51;6.13;;;0.95;;
16385;SDS011;8302;51.154;4.456;2022-12-24T06:14:19;3.78;;;0.82;;
16385;SDS011;8302;51.154;4.456;2022-12-24T06:16:47;4.45;;;1.00;;
16385;SDS011;8302;51.154;4.456;2022-12-24T06:19:15;0.70;;;0.40;;
16385;SDS011;8302;51.154;4.456;2022-12-24T06:21:43;0.82;;;0.82;;
16385;SDS011;8302;51.154;4.456;2022-12-24T06:24:12;0.60;;;0.47;;
16385;SDS011;8302;51.154;4.456;2022-12-24T06:26:40;2.72;;;0.95;;
16385;SDS011;8302;51.154;4.456;2022-12-24T06:29:08;3.20;;;0.60;;
16385;SDS011;8302;51.154;4.456;2022-12-24T06:31:37;2.33;;;0.98;;
16385;SDS011;8302;51.154;4.456;2022-12-24T06:34:05;1.70;;;0.90;;
16385;SDS011;8302;51.154;4.456;2022-12-24T06:36:32;1.75;;;0.75;;
16385;SDS011;8302;51.154;4.456;2022-12-24T06:39:00;2.30;;;1.17;;
16385;SDS011;8302;51.154;4.456;2022-12-24T06:41:30;2.70;;;1.13;;
16385;SDS011;8302;51.154;4.456;2022-12-24T06:43:57;2.80;;;1.15;;
16385;SDS011;8302;51.154;4.456;2022-12-24T06:46:25;1.08;;;0.50;;
16385;SDS011;8302;51.154;4.456;2022-12-24T06:48:53;3.22;;;1.05;;
16385;SDS011;8302;51.154;4.456;2022-12-24T06:51:21;4.30;;;1.02;;
16385;SDS011;8302;51.154;4.456;2022-12-24T06:53:49;2.17;;;0.70;;
16385;SDS011;8302;51.154;4.456;2022-12-24T06:56:17;1.17;;;0.45;;
16385;SDS011;8302;51.154;4.456;2022-12-24T06:58:46;2.70;;;0.75;;
16385;SDS011;8302;51.154;4.456;2022-12-24T07:01:15;0.75;;;0.60;;
16385;SDS011;8302;51.154;4.456;2022-12-24T07:03:43;2.65;;;1.73;;
16385;SDS011;8302;51.154;4.456;2022-12-24T07:06:14;2.83;;;1.15;;
16385;SDS011;8302;51.154;4.456;2022-12-24T07:08:42;6.97;;;0.75;;
16385;SDS011;8302;51.154;4.456;2022-12-24T07:11:10;3.75;;;1.05;;
16385;SDS011;8302;51.154;4.456;2022-12-24T07:13:38;2.55;;;0.47;;
16385;SDS011;8302;51.154;4.456;2022-12-24T07:16:07;1.98;;;1.13;;
16385;SDS011;8302;51.154;4.456;2022-12-24T07:18:35;1.88;;;0.80;;
16385;SDS011;8302;51.154;4.456;2022-12-24T07:21:04;2.05;;;0.65;;
16385;SDS011;8302;51.154;4.456;2022-12-24T07:23:32;1.67;;;0.57;;
16385;SDS011;8302;51.154;4.456;2022-12-24T07:26:00;3.40;;;0.70;;
16385;SDS011;8302;51.154;4.456;2022-12-24T07:28:29;6.28;;;1.00;;
16385;SDS011;8302;51.154;4.456;2022-12-24T07:30:57;2.63;;;0.95;;
16385;SDS011;8302;51.154;4.456;2022-12-24T07:33:27;4.10;;;0.93;;
16385;SDS011;8302;51.154;4.456;2022-12-24T07:35:58;2.65;;;1.27;;
16385;SDS011;8302;51.154;4.456;2022-12-24T07:38:26;0.95;;;0.80;;
16385;SDS011;8302;51.154;4.456;2022-12-24T07:40:54;4.03;;;1.15;;
16385;SDS011;8302;51.154;4.456;2022-12-24T07:43:22;0.80;;;0.60;;
16385;SDS011;8302;51.154;4.456;2022-12-24T07:45:53;3.15;;;1.13;;
16385;SDS011;8302;51.154;4.456;2022-12-24T07:48:21;0.90;;;0.55;;
16385;SDS011;8302;51.154;4.456;2022-12-24T07:50:50;2.10;;;0.73;;
16385;SDS011;8302;51.154;4.456;2022-12-24T07:53:18;1.13;;;0.63;;
16385;SDS011;8302;51.154;4.456;2022-12-24T07:55:46;2.30;;;1.08;;
16385;SDS011;8302;51.154;4.456;2022-12-24T07:58:14;0.95;;;0.85;;
16385;SDS011;8302;51.154;4.456;2022-12-24T08:00:42;0.93;;;0.75;;
16385;SDS011;8302;51.154;4.456;2022-12-24T08:03:11;3.30;;;0.82;;
16385;SDS011;8302;51.154;4.456;2022-12-24T08:05:43;0.73;;;0.70;;
16385;SDS011;8302;51.154;4.456;2022-12-24T08:08:12;1.80;;;0.68;;
16385;SDS011;8302;51.154;4.456;2022-12-24T08:10:40;4.43;;;1.30;;
16385;SDS011;8302;51.154;4.456;2022-12-24T08:13:08;2.53;;;1.33;;
16385;SDS011;8302;51.154;4.456;2022-12-24T08:15:36;2.95;;;1.02;;
16385;SDS011;8302;51.154;4.456;2022-12-24T08:18:04;7.65;;;1.58;;
16385;SDS011;8302;51.154;4.456;2022-12-24T08:20:32;2.45;;;0.85;;
16385;SDS011;8302;51.154;4.456;2022-12-24T08:23:00;6.70;;;1.73;;
16385;SDS011;8302;51.154;4.456;2022-12-24T08:25:29;4.18;;;1.02;;
16385;SDS011;8302;51.154;4.456;2022-12-24T08:27:57;0.32;;;0.32;;
16385;SDS011;8302;51.154;4.456;2022-12-24T08:30:25;1.85;;;0.82;;
16385;SDS011;8302;51.154;4.456;2022-12-24T08:32:53;0.90;;;0.90;;
16385;SDS011;8302;51.154;4.456;2022-12-24T08:35:21;3.47;;;1.40;;
16385;SDS011;8302;51.154;4.456;2022-12-24T08:37:49;0.80;;;0.40;;
16385;SDS011;8302;51.154;4.456;2022-12-24T08:40:17;1.98;;;0.95;;
16385;SDS011;8302;51.154;4.456;2022-12-24T08:42:46;2.45;;;1.10;;
16385;SDS011;8302;51.154;4.456;2022-12-24T08:45:14;3.42;;;1.08;;
16385;SDS011;8302;51.154;4.456;2022-12-24T08:47:42;5.47;;;1.23;;
16385;SDS011;8302;51.154;4.456;2022-12-24T08:50:10;5.82;;;1.77;;
16385;SDS011;8302;51.154;4.456;2022-12-24T08:52:38;4.28;;;0.85;;
16385;SDS011;8302;51.154;4.456;2022-12-24T08:55:06;1.05;;;0.95;;
16385;SDS011;8302;51.154;4.456;2022-12-24T08:57:34;3.60;;;1.30;;
16385;SDS011;8302;51.154;4.456;2022-12-24T09:00:04;1.10;;;0.65;;
16385;SDS011;8302;51.154;4.456;2022-12-24T09:02:32;1.45;;;0.70;;
16385;SDS011;8302;51.154;4.456;2022-12-24T09:05:01;1.02;;;0.85;;
16385;SDS011;8302;51.154;4.456;2022-12-24T09:07:29;1.70;;;1.15;;
16385;SDS011;8302;51.154;4.456;2022-12-24T09:09:56;0.40;;;0.40;;
16385;SDS011;8302;51.154;4.456;2022-12-24T09:12:24;2.30;;;0.95;;
16385;SDS011;8302;51.154;4.456;2022-12-24T09:14:52;0.52;;;0.47;;
16385;SDS011;8302;51.154;4.456;2022-12-24T09:17:30;1.42;;;0.95;;
16385;SDS011;8302;51.154;4.456;2022-12-24T09:19:58;2.60;;;0.93;;
16385;SDS011;8302;51.154;4.456;2022-12-24T09:22:25;1.58;;;1.17;;
16385;SDS011;8302;51.154;4.456;2022-12-24T09:24:53;1.73;;;0.95;;
16385;SDS011;8302;51.154;4.456;2022-12-24T09:27:21;1.55;;;0.75;;
16385;SDS011;8302;51.154;4.456;2022-12-24T09:29:49;5.40;;;0.70;;
16385;SDS011;8302;51.154;4.456;2022-12-24T09:32:17;3.38;;;0.90;;
16385;SDS011;8302;51.154;4.456;2022-12-24T09:34:46;3.08;;;1.08;;
16385;SDS011;8302;51.154;4.456;2022-12-24T09:37:14;3.08;;;1.83;;
16385;SDS011;8302;51.154;4.456;2022-12-24T09:39:42;2.63;;;1.42;;
16385;SDS011;8302;51.154;4.456;2022-12-24T09:42:13;3.85;;;1.38;;
16385;SDS011;8302;51.154;4.456;2022-12-24T09:44:44;4.50;;;2.22;;
16385;SDS011;8302;51.154;4.456;2022-12-24T09:47:16;7.18;;;1.65;;
16385;SDS011;8302;51.154;4.456;2022-12-24T09:49:50;4.90;;;1.80;;
16385;SDS011;8302;51.154;4.456;2022-12-24T09:52:22;6.55;;;2.33;;
16385;SDS011;8302;51.154;4.456;2022-12-24T09:54:55;6.25;;;1.65;;
16385;SDS011;8302;51.154;4.456;2022-12-24T09:57:26;8.60;;;1.80;;
16385;SDS011;8302;51.154;4.456;2022-12-24T09:59:55;6.47;;;1.88;;
16385;SDS011;8302;51.154;4.456;2022-12-24T10:02:23;7.13;;;1.90;;
16385;SDS011;8302;51.154;4.456;2022-12-24T10:04:53;4.43;;;1.60;;
16385;SDS011;8302;51.154;4.456;2022-12-24T10:07:32;5.93;;;1.95;;
16385;SDS011;8302;51.154;4.456;2022-12-24T10:10:08;4.78;;;1.98;;
16385;SDS011;8302;51.154;4.456;2022-12-24T10:12:40;6.00;;;1.85;;
16385;SDS011;8302;51.154;4.456;2022-12-24T10:15:16;3.40;;;1.80;;
16385;SDS011;8302;51.154;4.456;2022-12-24T10:17:50;4.72;;;1.60;;
16385;SDS011;8302;51.154;4.456;2022-12-24T10:20:36;6.65;;;1.38;;
16385;SDS011;8302;51.154;4.456;2022-12-24T10:23:06;3.05;;;1.38;;
16385;SDS011;8302;51.154;4.456;2022-12-24T10:25:40;4.22;;;1.85;;
16385;SDS011;8302;51.154;4.456;2022-12-24T10:28:12;2.78;;;1.02;;
16385;SDS011;8302;51.154;4.456;2022-12-24T10:30:41;5.57;;;2.35;;
16385;SDS011;8302;51.154;4.456;2022-12-24T10:33:13;3.50;;;1.23;;
16385;SDS011;8302;51.154;4.456;2022-12-24T10:35:44;4.40;;;1.55;;
16385;SDS011;8302;51.154;4.456;2022-12-24T10:38:14;6.88;;;2.10;;
16385;SDS011;8302;51.154;4.456;2022-12-24T10:40:42;4.20;;;1.75;;
16385;SDS011;8302;51.154;4.456;2022-12-24T10:43:13;10.77;;;1.73;;
16385;SDS011;8302;51.154;4.456;2022-12-24T10:45:43;6.30;;;1.77;;
16385;SDS011;8302;51.154;4.456;2022-12-24T10:48:15;2.88;;;1.27;;
16385;SDS011;8302;51.154;4.456;2022-12-24T10:50:48;7.70;;;2.35;;
16385;SDS011;8302;51.154;4.456;2022-12-24T10:53:20;8.43;;;2.75;;
16385;SDS011;8302;51.154;4.456;2022-12-24T10:55:50;5.55;;;1.58;;
16385;SDS011;8302;51.154;4.456;2022-12-24T10:58:18;1.60;;;0.93;;
16385;SDS011;8302;51.154;4.456;2022-12-24T11:00:48;4.47;;;1.60;;
16385;SDS011;8302;51.154;4.456;2022-12-24T11:03:23;5.03;;;1.33;;
16385;SDS011;8302;51.154;4.456;2022-12-24T11:06:00;4.78;;;1.42;;
16385;SDS011;8302;51.154;4.456;2022-12-24T11:08:28;5.80;;;1.48;;
16385;SDS011;8302;51.154;4.456;2022-12-24T11:10:56;2.33;;;1.00;;
16385;SDS011;8302;51.154;4.456;2022-12-24T11:13:25;1.65;;;1.13;;
16385;SDS011;8302;51.154;4.456;2022-12-24T11:16:05;6.65;;;1.35;;
16385;SDS011;8302;51.154;4.456;2022-12-24T11:18:34;2.45;;;0.77;;
16385;SDS011;8302;51.154;4.456;2022-12-24T11:21:04;5.13;;;1.63;;
16385;SDS011;8302;51.154;4.456;2022-12-24T11:23:32;1.65;;;1.05;;
16385;SDS011;8302;51.154;4.456;2022-12-24T11:26:00;2.45;;;1.55;;
16385;SDS011;8302;51.154;4.456;2022-12-24T11:28:29;2.53;;;1.50;;
16385;SDS011;8302;51.154;4.456;2022-12-24T11:31:02;4.32;;;1.20;;
16385;SDS011;8302;51.154;4.456;2022-12-24T11:33:31;4.38;;;1.55;;
16385;SDS011;8302;51.154;4.456;2022-12-24T11:36:02;3.58;;;1.42;;
16385;SDS011;8302;51.154;4.456;2022-12-24T11:38:32;2.80;;;1.38;;
16385;SDS011;8302;51.154;4.456;2022-12-24T11:41:02;5.22;;;1.55;;
16385;SDS011;8302;51.154;4.456;2022-12-24T11:43:34;3.00;;;1.42;;
16385;SDS011;8302;51.154;4.456;2022-12-24T11:49:03;6.50;;;1.98;;
16385;SDS011;8302;51.154;4.456;2022-12-24T11:51:34;6.72;;;2.10;;
16385;SDS011;8302;51.154;4.456;2022-12-24T11:54:05;6.05;;;2.00;;
16385;SDS011;8302;51.154;4.456;2022-12-24T11:56:35;5.20;;;1.65;;
16385;SDS011;8302;51.154;4.456;2022-12-24T11:59:10;6.95;;;2.63;;
16385;SDS011;8302;51.154;4.456;2022-12-24T12:01:43;7.20;;;2.47;;
16385;SDS011;8302;51.154;4.456;2022-12-24T12:04:14;5.63;;;2.55;;
16385;SDS011;8302;51.154;4.456;2022-12-24T12:06:43;4.38;;;2.00;;
16385;SDS011;8302;51.154;4.456;2022-12-24T12:09:16;6.68;;;2.53;;
16385;SDS011;8302;51.154;4.456;2022-12-24T12:11:45;5.88;;;2.20;;
16385;SDS011;8302;51.154;4.456;2022-12-24T12:14:16;6.80;;;2.15;;
16385;SDS011;8302;51.154;4.456;2022-12-24T12:16:48;8.35;;;2.67;;
16385;SDS011;8302;51.154;4.456;2022-12-24T12:19:32;5.90;;;2.17;;
16385;SDS011;8302;51.154;4.456;2022-12-24T12:22:03;7.10;;;2.35;;
16385;SDS011;8302;51.154;4.456;2022-12-24T12:24:35;4.60;;;1.85;;
16385;SDS011;8302;51.154;4.456;2022-12-24T12:27:04;5.95;;;2.35;;
16385;SDS011;8302;51.154;4.456;2022-12-24T12:29:34;7.25;;;2.55;;
16385;SDS011;8302;51.154;4.456;2022-12-24T12:32:03;6.05;;;1.80;;
16385;SDS011;8302;51.154;4.456;2022-12-24T12:34:33;4.22;;;1.98;;
16385;SDS011;8302;51.154;4.456;2022-12-24T12:37:04;8.30;;;2.67;;
16385;SDS011;8302;51.154;4.456;2022-12-24T12:39:41;4.90;;;1.80;;
16385;SDS011;8302;51.154;4.456;2022-12-24T12:42:11;6.18;;;2.00;;
16385;SDS011;8302;51.154;4.456;2022-12-24T12:44:48;3.08;;;1.20;;
16385;SDS011;8302;51.154;4.456;2022-12-24T12:47:25;6.63;;;1.65;;
16385;SDS011;8302;51.154;4.456;2022-12-24T12:49:58;5.28;;;1.60;;
16385;SDS011;8302;51.154;4.456;2022-12-24T12:52:31;5.85;;;1.50;;
16385;SDS011;8302;51.154;4.456;2022-12-24T12:55:06;5.35;;;1.90;;
16385;SDS011;8302;51.154;4.456;2022-12-24T12:57:49;4.85;;;1.30;;
16385;SDS011;8302;51.154;4.456;2022-12-24T13:00:18;3.42;;;1.35;;
16385;SDS011;8302;51.154;4.456;2022-12-24T13:02:52;2.83;;;1.50;;
16385;SDS011;8302;51.154;4.456;2022-12-24T13:05:32;2.38;;;1.27;;
16385;SDS011;8302;51.154;4.456;2022-12-24T13:08:10;2.58;;;1.35;;
16385;SDS011;8302;51.154;4.456;2022-12-24T13:10:48;6.13;;;1.92;;
16385;SDS011;8302;51.154;4.456;2022-12-24T13:16:13;6.47;;;1.58;;
16385;SDS011;8302;51.154;4.456;2022-12-24T13:18:52;2.25;;;1.35;;
16385;SDS011;8302;51.154;4.456;2022-12-24T13:21:24;6.15;;;1.33;;
16385;SDS011;8302;51.154;4.456;2022-12-24T13:24:02;2.08;;;1.00;;
16385;SDS011;8302;51.154;4.456;2022-12-24T13:26:32;3.50;;;1.55;;
16385;SDS011;8302;51.154;4.456;2022-12-24T13:31:46;2.53;;;1.42;;
16385;SDS011;8302;51.154;4.456;2022-12-24T13:37:01;3.85;;;1.63;;
16385;SDS011;8302;51.154;4.456;2022-12-24T13:42:17;4.20;;;1.52;;
16385;SDS011;8302;51.154;4.456;2022-12-24T13:47:52;4.15;;;1.85;;
16385;SDS011;8302;51.154;4.456;2022-12-24T13:50:21;5.50;;;1.80;;
16385;SDS011;8302;51.154;4.456;2022-12-24T13:52:50;5.57;;;1.65;;
16385;SDS011;8302;51.154;4.456;2022-12-24T13:55:19;4.90;;;1.50;;
16385;SDS011;8302;51.154;4.456;2022-12-24T13:57:56;6.13;;;1.60;;
16385;SDS011;8302;51.154;4.456;2022-12-24T14:03:17;4.38;;;1.90;;
16385;SDS011;8302;51.154;4.456;2022-12-24T14:05:48;3.50;;;1.48;;
16385;SDS011;8302;51.154;4.456;2022-12-24T14:08:28;6.25;;;2.05;;
16385;SDS011;8302;51.154;4.456;2022-12-24T14:10:58;6.07;;;1.67;;
16385;SDS011;8302;51.154;4.456;2022-12-24T14:13:53;4.03;;;1.60;;
16385;SDS011;8302;51.154;4.456;2022-12-24T14:16:22;4.10;;;1.52;;
16385;SDS011;8302;51.154;4.456;2022-12-24T14:18:56;4.03;;;2.13;;
16385;SDS011;8302;51.154;4.456;2022-12-24T14:21:25;5.60;;;1.27;;
16385;SDS011;8302;51.154;4.456;2022-12-24T14:23:55;6.32;;;2.00;;
16385;SDS011;8302;51.154;4.456;2022-12-24T14:26:24;1.88;;;1.13;;
16385;SDS011;8302;51.154;4.456;2022-12-24T14:28:55;7.85;;;1.42;;
16385;SDS011;8302;51.154;4.456;2022-12-24T14:31:24;3.42;;;1.67;;
16385;SDS011;8302;51.154;4.456;2022-12-24T14:34:02;7.20;;;1.63;;
16385;SDS011;8302;51.154;4.456;2022-12-24T14:36:31;3.13;;;1.38;;
16385;SDS011;8302;51.154;4.456;2022-12-24T14:38:59;4.07;;;1.33;;
16385;SDS011;8302;51.154;4.456;2022-12-24T14:41:32;6.25;;;2.28;;
16385;SDS011;8302;51.154;4.456;2022-12-24T14:44:05;6.45;;;2.75;;
16385;SDS011;8302;51.154;4.456;2022-12-24T14:46:37;4.03;;;2.00;;
16385;SDS011;8302;51.154;4.456;2022-12-24T14:49:10;9.30;;;2.60;;
16385;SDS011;8302;51.154;4.456;2022-12-24T14:51:40;7.15;;;2.50;;
16385;SDS011;8302;51.154;4.456;2022-12-24T14:59:40;5.60;;;2.63;;
16385;SDS011;8302;51.154;4.456;2022-12-24T15:05:04;5.75;;;2.70;;
16385;SDS011;8302;51.154;4.456;2022-12-24T15:07:33;7.25;;;2.80;;
16385;SDS011;8302;51.154;4.456;2022-12-24T15:10:16;8.27;;;2.95;;
16385;SDS011;8302;51.154;4.456;2022-12-24T15:12:47;5.55;;;2.63;;
16385;SDS011;8302;51.154;4.456;2022-12-24T15:15:16;5.05;;;3.17;;
16385;SDS011;8302;51.154;4.456;2022-12-24T15:17:44;13.23;;;3.30;;
16385;SDS011;8302;51.154;4.456;2022-12-24T15:20:12;6.50;;;2.67;;
16385;SDS011;8302;51.154;4.456;2022-12-24T15:22:41;8.88;;;2.85;;
16385;SDS011;8302;51.154;4.456;2022-12-24T15:25:16;7.13;;;3.30;;
16385;SDS011;8302;51.154;4.456;2022-12-24T15:27:44;11.63;;;3.78;;
16385;SDS011;8302;51.154;4.456;2022-12-24T15:30:13;8.65;;;3.33;;
16385;SDS011;8302;51.154;4.456;2022-12-24T15:32:43;9.00;;;3.13;;
16385;SDS011;8302;51.154;4.456;2022-12-24T15:37:56;8.02;;;2.95;;
16385;SDS011;8302;51.154;4.456;2022-12-24T15:40:24;7.63;;;3.25;;
16385;SDS011;8302;51.154;4.456;2022-12-24T15:42:52;9.27;;;3.30;;
16385;SDS011;8302;51.154;4.456;2022-12-24T15:45:20;12.90;;;3.33;;
16385;SDS011;8302;51.154;4.456;2022-12-24T15:47:55;10.50;;;3.90;;
16385;SDS011;8302;51.154;4.456;2022-12-24T15:50:25;5.90;;;2.95;;